sensor_id;sensor_type;location;lat;lon;timestamp;P1;durP1;ratioP1;P2;durP2;ratioP2
59271;SDS011;45043;51.068;7.026;2023-08-21T00:00:27;5.87;;;5.00;;
59271;SDS011;45043;51.068;7.026;2023-08-21T00:03:28;5.57;;;4.40;;
59271;SDS011;45043;51.068;7.026;2023-08-21T00:06:30;5.27;;;4.43;;
59271;SDS011;45043;51.068;7.026;2023-08-21T00:09:31;6.07;;;4.87;;
59271;SDS011;45043;51.068;7.026;2023-08-21T00:12:32;5.87;;;4.73;;
59271;SDS011;45043;51.068;7.026;2023-08-21T00:15:33;8.03;;;5.97;;
59271;SDS011;45043;51.068;7.026;2023-08-21T00:18:34;8.00;;;4.80;;
59271;SDS011;45043;51.068;7.026;2023-08-21T00:21:35;6.20;;;4.80;;
59271;SDS011;45043;51.068;7.026;2023-08-21T00:24:36;6.90;;;4.60;;
59271;SDS011;45043;51.068;7.026;2023-08-21T00:27:37;7.47;;;6.70;;
59271;SDS011;45043;51.068;7.026;2023-08-21T00:30:39;8.17;;;5.27;;
59271;SDS011;45043;51.068;7.026;2023-08-21T00:33:40;10.40;;;4.90;;
59271;SDS011;45043;51.068;7.026;2023-08-21T00:36:41;7.23;;;4.30;;
59271;SDS011;45043;51.068;7.026;2023-08-21T00:39:42;8.33;;;5.20;;
59271;SDS011;45043;51.068;7.026;2023-08-21T00:42:42;7.23;;;4.67;;
59271;SDS011;45043;51.068;7.026;2023-08-21T00:45:44;6.67;;;5.40;;
59271;SDS011;45043;51.068;7.026;2023-08-21T00:48:46;30.33;;;22.80;;
59271;SDS011;45043;51.068;7.026;2023-08-21T00:51:47;24.73;;;21.40;;
59271;SDS011;45043;51.068;7.026;2023-08-21T00:54:50;12.53;;;11.30;;
59271;SDS011;45043;51.068;7.026;2023-08-21T00:57:51;8.70;;;7.43;;
59271;SDS011;45043;51.068;7.026;2023-08-21T01:00:52;7.57;;;5.30;;
59271;SDS011;45043;51.068;7.026;2023-08-21T01:03:53;6.37;;;4.93;;
59271;SDS011;45043;51.068;7.026;2023-08-21T01:06:56;6.33;;;4.43;;
59271;SDS011;45043;51.068;7.026;2023-08-21T01:10:05;7.83;;;4.23;;
59271;SDS011;45043;51.068;7.026;2023-08-21T01:13:40;7.50;;;4.70;;
59271;SDS011;45043;51.068;7.026;2023-08-21T01:17:00;6.00;;;4.03;;
59271;SDS011;45043;51.068;7.026;2023-08-21T01:20:07;12.00;;;10.00;;
59271;SDS011;45043;51.068;7.026;2023-08-21T01:23:26;18.23;;;15.87;;
59271;SDS011;45043;51.068;7.026;2023-08-21T01:26:28;14.07;;;11.90;;
59271;SDS011;45043;51.068;7.026;2023-08-21T01:29:29;13.70;;;9.40;;
59271;SDS011;45043;51.068;7.026;2023-08-21T01:35:38;7.73;;;6.90;;
59271;SDS011;45043;51.068;7.026;2023-08-21T01:38:39;8.40;;;7.33;;
59271;SDS011;45043;51.068;7.026;2023-08-21T01:41:41;9.27;;;6.23;;
59271;SDS011;45043;51.068;7.026;2023-08-21T01:44:42;6.60;;;5.60;;
59271;SDS011;45043;51.068;7.026;2023-08-21T01:47:46;6.33;;;5.13;;
59271;SDS011;45043;51.068;7.026;2023-08-21T01:50:48;6.97;;;5.10;;
59271;SDS011;45043;51.068;7.026;2023-08-21T01:53:48;8.50;;;4.90;;
59271;SDS011;45043;51.068;7.026;2023-08-21T01:56:49;6.20;;;5.00;;
59271;SDS011;45043;51.068;7.026;2023-08-21T01:59:50;8.10;;;5.07;;
59271;SDS011;45043;51.068;7.026;2023-08-21T02:02:51;7.17;;;5.00;;
59271;SDS011;45043;51.068;7.026;2023-08-21T02:05:55;9.17;;;4.97;;
59271;SDS011;45043;51.068;7.026;2023-08-21T02:08:58;6.70;;;4.47;;
59271;SDS011;45043;51.068;7.026;2023-08-21T02:11:59;6.63;;;4.60;;
59271;SDS011;45043;51.068;7.026;2023-08-21T02:15:00;6.60;;;4.70;;
59271;SDS011;45043;51.068;7.026;2023-08-21T02:18:05;6.60;;;4.93;;
59271;SDS011;45043;51.068;7.026;2023-08-21T02:21:06;5.20;;;4.70;;
59271;SDS011;45043;51.068;7.026;2023-08-21T02:24:07;5.23;;;4.23;;
59271;SDS011;45043;51.068;7.026;2023-08-21T02:27:08;5.43;;;4.40;;
59271;SDS011;45043;51.068;7.026;2023-08-21T02:30:09;4.70;;;4.20;;
59271;SDS011;45043;51.068;7.026;2023-08-21T02:33:11;7.83;;;4.47;;
59271;SDS011;45043;51.068;7.026;2023-08-21T02:36:12;6.57;;;4.20;;
59271;SDS011;45043;51.068;7.026;2023-08-21T02:39:13;6.87;;;4.33;;
59271;SDS011;45043;51.068;7.026;2023-08-21T02:42:14;7.20;;;5.07;;
59271;SDS011;45043;51.068;7.026;2023-08-21T02:45:15;6.53;;;4.50;;
59271;SDS011;45043;51.068;7.026;2023-08-21T02:48:16;6.83;;;4.20;;
59271;SDS011;45043;51.068;7.026;2023-08-21T02:51:18;5.63;;;4.00;;
59271;SDS011;45043;51.068;7.026;2023-08-21T02:54:18;7.17;;;4.13;;
59271;SDS011;45043;51.068;7.026;2023-08-21T02:57:19;5.87;;;4.40;;
59271;SDS011;45043;51.068;7.026;2023-08-21T03:00:21;4.40;;;4.00;;
59271;SDS011;45043;51.068;7.026;2023-08-21T03:03:22;4.13;;;3.60;;
59271;SDS011;45043;51.068;7.026;2023-08-21T03:06:23;6.57;;;4.17;;
59271;SDS011;45043;51.068;7.026;2023-08-21T03:09:24;5.63;;;3.80;;
59271;SDS011;45043;51.068;7.026;2023-08-21T03:12:25;6.17;;;4.20;;
59271;SDS011;45043;51.068;7.026;2023-08-21T03:15:26;6.33;;;4.00;;
59271;SDS011;45043;51.068;7.026;2023-08-21T03:18:29;5.97;;;4.07;;
59271;SDS011;45043;51.068;7.026;2023-08-21T03:21:32;5.53;;;4.10;;
59271;SDS011;45043;51.068;7.026;2023-08-21T03:24:34;5.43;;;3.73;;
59271;SDS011;45043;51.068;7.026;2023-08-21T03:27:35;7.30;;;4.10;;
59271;SDS011;45043;51.068;7.026;2023-08-21T03:30:41;5.47;;;4.00;;
59271;SDS011;45043;51.068;7.026;2023-08-21T03:33:41;7.50;;;4.37;;
59271;SDS011;45043;51.068;7.026;2023-08-21T03:36:43;5.23;;;3.90;;
59271;SDS011;45043;51.068;7.026;2023-08-21T03:39:45;6.30;;;3.90;;
59271;SDS011;45043;51.068;7.026;2023-08-21T03:42:46;5.27;;;4.00;;
59271;SDS011;45043;51.068;7.026;2023-08-21T03:45:47;8.13;;;4.30;;
59271;SDS011;45043;51.068;7.026;2023-08-21T03:48:49;5.17;;;3.83;;
59271;SDS011;45043;51.068;7.026;2023-08-21T03:51:51;5.73;;;3.97;;
59271;SDS011;45043;51.068;7.026;2023-08-21T03:54:52;4.50;;;3.73;;
59271;SDS011;45043;51.068;7.026;2023-08-21T03:57:53;5.67;;;4.23;;
59271;SDS011;45043;51.068;7.026;2023-08-21T04:00:55;10.53;;;4.23;;
59271;SDS011;45043;51.068;7.026;2023-08-21T04:03:56;5.73;;;4.30;;
59271;SDS011;45043;51.068;7.026;2023-08-21T04:06:56;6.33;;;4.30;;
59271;SDS011;45043;51.068;7.026;2023-08-21T04:09:57;6.10;;;4.27;;
59271;SDS011;45043;51.068;7.026;2023-08-21T04:12:58;5.07;;;4.37;;
59271;SDS011;45043;51.068;7.026;2023-08-21T04:15:59;6.43;;;3.90;;
59271;SDS011;45043;51.068;7.026;2023-08-21T04:19:00;6.10;;;3.87;;
59271;SDS011;45043;51.068;7.026;2023-08-21T04:22:01;6.80;;;4.00;;
59271;SDS011;45043;51.068;7.026;2023-08-21T04:25:03;4.23;;;3.70;;
59271;SDS011;45043;51.068;7.026;2023-08-21T04:28:04;6.73;;;4.03;;
59271;SDS011;45043;51.068;7.026;2023-08-21T04:31:05;5.93;;;4.20;;
59271;SDS011;45043;51.068;7.026;2023-08-21T04:34:08;6.13;;;3.40;;
59271;SDS011;45043;51.068;7.026;2023-08-21T04:37:08;5.67;;;4.10;;
59271;SDS011;45043;51.068;7.026;2023-08-21T04:40:10;5.17;;;4.23;;
59271;SDS011;45043;51.068;7.026;2023-08-21T04:43:12;7.23;;;3.97;;
59271;SDS011;45043;51.068;7.026;2023-08-21T04:46:14;7.10;;;4.33;;
59271;SDS011;45043;51.068;7.026;2023-08-21T04:49:18;5.07;;;4.10;;
59271;SDS011;45043;51.068;7.026;2023-08-21T04:52:19;7.93;;;4.40;;
59271;SDS011;45043;51.068;7.026;2023-08-21T04:55:21;5.63;;;4.10;;
59271;SDS011;45043;51.068;7.026;2023-08-21T04:58:22;7.33;;;4.00;;
59271;SDS011;45043;51.068;7.026;2023-08-21T05:01:24;5.93;;;4.30;;
59271;SDS011;45043;51.068;7.026;2023-08-21T05:04:25;6.57;;;4.70;;
59271;SDS011;45043;51.068;7.026;2023-08-21T05:07:27;4.53;;;4.13;;
59271;SDS011;45043;51.068;7.026;2023-08-21T05:10:28;5.40;;;4.30;;
59271;SDS011;45043;51.068;7.026;2023-08-21T05:13:29;7.57;;;4.30;;
59271;SDS011;45043;51.068;7.026;2023-08-21T05:16:30;5.23;;;4.73;;
59271;SDS011;45043;51.068;7.026;2023-08-21T05:19:30;5.30;;;4.53;;
59271;SDS011;45043;51.068;7.026;2023-08-21T05:22:31;5.53;;;4.60;;
59271;SDS011;45043;51.068;7.026;2023-08-21T05:25:32;5.13;;;4.63;;
59271;SDS011;45043;51.068;7.026;2023-08-21T05:28:33;6.60;;;4.37;;
59271;SDS011;45043;51.068;7.026;2023-08-21T05:31:34;7.23;;;5.33;;
59271;SDS011;45043;51.068;7.026;2023-08-21T05:34:35;5.90;;;4.60;;
59271;SDS011;45043;51.068;7.026;2023-08-21T05:37:36;4.63;;;4.30;;
59271;SDS011;45043;51.068;7.026;2023-08-21T05:40:37;6.00;;;4.87;;
59271;SDS011;45043;51.068;7.026;2023-08-21T05:43:38;7.20;;;5.17;;
59271;SDS011;45043;51.068;7.026;2023-08-21T05:46:40;5.60;;;5.10;;
59271;SDS011;45043;51.068;7.026;2023-08-21T05:49:41;7.20;;;5.00;;
59271;SDS011;45043;51.068;7.026;2023-08-21T05:52:42;5.93;;;4.70;;
59271;SDS011;45043;51.068;7.026;2023-08-21T05:55:44;6.07;;;5.17;;
59271;SDS011;45043;51.068;7.026;2023-08-21T05:58:45;6.13;;;4.80;;
59271;SDS011;45043;51.068;7.026;2023-08-21T06:01:46;7.03;;;4.80;;
59271;SDS011;45043;51.068;7.026;2023-08-21T06:04:48;6.30;;;5.03;;
59271;SDS011;45043;51.068;7.026;2023-08-21T06:07:50;7.07;;;5.10;;
59271;SDS011;45043;51.068;7.026;2023-08-21T06:10:52;5.60;;;5.00;;
59271;SDS011;45043;51.068;7.026;2023-08-21T06:13:53;6.30;;;5.00;;
59271;SDS011;45043;51.068;7.026;2023-08-21T06:16:58;5.70;;;4.90;;
59271;SDS011;45043;51.068;7.026;2023-08-21T06:20:00;8.17;;;5.40;;
59271;SDS011;45043;51.068;7.026;2023-08-21T06:23:01;6.43;;;5.53;;
59271;SDS011;45043;51.068;7.026;2023-08-21T06:26:02;6.53;;;5.20;;
59271;SDS011;45043;51.068;7.026;2023-08-21T06:29:04;6.83;;;5.70;;
59271;SDS011;45043;51.068;7.026;2023-08-21T06:32:05;11.67;;;5.93;;
59271;SDS011;45043;51.068;7.026;2023-08-21T06:35:06;7.73;;;5.40;;
59271;SDS011;45043;51.068;7.026;2023-08-21T06:38:07;9.13;;;6.20;;
59271;SDS011;45043;51.068;7.026;2023-08-21T06:41:08;6.87;;;6.17;;
59271;SDS011;45043;51.068;7.026;2023-08-21T06:44:09;7.27;;;5.97;;
59271;SDS011;45043;51.068;7.026;2023-08-21T06:47:10;7.57;;;5.60;;
59271;SDS011;45043;51.068;7.026;2023-08-21T06:50:12;10.47;;;6.67;;
59271;SDS011;45043;51.068;7.026;2023-08-21T06:53:13;8.40;;;6.60;;
59271;SDS011;45043;51.068;7.026;2023-08-21T06:56:13;7.13;;;6.20;;
59271;SDS011;45043;51.068;7.026;2023-08-21T06:59:14;7.23;;;6.53;;
59271;SDS011;45043;51.068;7.026;2023-08-21T07:02:15;8.40;;;6.30;;
59271;SDS011;45043;51.068;7.026;2023-08-21T07:05:16;9.03;;;7.30;;
59271;SDS011;45043;51.068;7.026;2023-08-21T07:08:17;10.53;;;7.70;;
59271;SDS011;45043;51.068;7.026;2023-08-21T07:11:19;8.37;;;7.37;;
59271;SDS011;45043;51.068;7.026;2023-08-21T07:14:20;8.80;;;6.77;;
59271;SDS011;45043;51.068;7.026;2023-08-21T07:17:21;8.23;;;7.13;;
59271;SDS011;45043;51.068;7.026;2023-08-21T07:20:22;8.53;;;7.50;;
59271;SDS011;45043;51.068;7.026;2023-08-21T07:23:22;8.73;;;7.80;;
59271;SDS011;45043;51.068;7.026;2023-08-21T07:26:23;9.40;;;8.23;;
59271;SDS011;45043;51.068;7.026;2023-08-21T07:29:29;10.20;;;7.97;;
59271;SDS011;45043;51.068;7.026;2023-08-21T07:32:30;9.90;;;7.57;;
59271;SDS011;45043;51.068;7.026;2023-08-21T07:35:32;9.33;;;6.73;;
59271;SDS011;45043;51.068;7.026;2023-08-21T07:38:33;8.73;;;7.90;;
59271;SDS011;45043;51.068;7.026;2023-08-21T07:41:34;8.90;;;8.00;;
59271;SDS011;45043;51.068;7.026;2023-08-21T07:44:35;9.07;;;8.17;;
59271;SDS011;45043;51.068;7.026;2023-08-21T07:47:37;9.93;;;8.57;;
59271;SDS011;45043;51.068;7.026;2023-08-21T07:50:37;9.43;;;8.37;;
59271;SDS011;45043;51.068;7.026;2023-08-21T07:53:39;10.13;;;9.13;;
59271;SDS011;45043;51.068;7.026;2023-08-21T07:56:39;8.70;;;7.90;;
59271;SDS011;45043;51.068;7.026;2023-08-21T07:59:41;14.43;;;9.23;;
59271;SDS011;45043;51.068;7.026;2023-08-21T08:02:41;13.53;;;10.07;;
59271;SDS011;45043;51.068;7.026;2023-08-21T08:05:44;12.53;;;8.77;;
59271;SDS011;45043;51.068;7.026;2023-08-21T08:08:46;10.17;;;9.13;;
59271;SDS011;45043;51.068;7.026;2023-08-21T08:11:46;11.50;;;10.13;;
59271;SDS011;45043;51.068;7.026;2023-08-21T08:14:47;13.83;;;10.80;;
59271;SDS011;45043;51.068;7.026;2023-08-21T08:17:48;16.97;;;13.90;;
59271;SDS011;45043;51.068;7.026;2023-08-21T08:20:53;14.80;;;11.57;;
59271;SDS011;45043;51.068;7.026;2023-08-21T08:23:55;11.90;;;10.40;;
59271;SDS011;45043;51.068;7.026;2023-08-21T08:26:56;12.23;;;10.17;;
59271;SDS011;45043;51.068;7.026;2023-08-21T08:29:58;12.97;;;10.27;;
59271;SDS011;45043;51.068;7.026;2023-08-21T08:32:59;13.90;;;11.73;;
59271;SDS011;45043;51.068;7.026;2023-08-21T08:36:00;12.37;;;10.70;;
59271;SDS011;45043;51.068;7.026;2023-08-21T08:39:01;12.57;;;10.27;;
59271;SDS011;45043;51.068;7.026;2023-08-21T08:42:03;12.67;;;9.07;;
59271;SDS011;45043;51.068;7.026;2023-08-21T08:45:06;16.33;;;9.43;;
59271;SDS011;45043;51.068;7.026;2023-08-21T08:48:08;10.77;;;8.17;;
59271;SDS011;45043;51.068;7.026;2023-08-21T08:51:10;12.50;;;9.80;;
59271;SDS011;45043;51.068;7.026;2023-08-21T08:54:12;11.63;;;8.90;;
59271;SDS011;45043;51.068;7.026;2023-08-21T08:57:14;12.27;;;10.00;;
59271;SDS011;45043;51.068;7.026;2023-08-21T09:00:16;14.03;;;11.30;;
59271;SDS011;45043;51.068;7.026;2023-08-21T09:03:16;15.10;;;12.20;;
59271;SDS011;45043;51.068;7.026;2023-08-21T09:06:18;13.57;;;12.17;;
59271;SDS011;45043;51.068;7.026;2023-08-21T09:09:19;15.80;;;13.30;;
59271;SDS011;45043;51.068;7.026;2023-08-21T09:12:19;16.13;;;13.27;;
59271;SDS011;45043;51.068;7.026;2023-08-21T09:15:21;22.07;;;13.57;;
59271;SDS011;45043;51.068;7.026;2023-08-21T09:18:30;15.90;;;14.30;;
59271;SDS011;45043;51.068;7.026;2023-08-21T09:21:30;14.43;;;12.20;;
59271;SDS011;45043;51.068;7.026;2023-08-21T09:24:31;15.90;;;14.23;;
59271;SDS011;45043;51.068;7.026;2023-08-21T09:27:33;17.83;;;15.30;;
59271;SDS011;45043;51.068;7.026;2023-08-21T09:34:04;17.67;;;13.93;;
59271;SDS011;45043;51.068;7.026;2023-08-21T09:37:06;17.90;;;12.93;;
59271;SDS011;45043;51.068;7.026;2023-08-21T09:40:09;17.97;;;11.53;;
59271;SDS011;45043;51.068;7.026;2023-08-21T09:43:11;14.73;;;12.43;;
59271;SDS011;45043;51.068;7.026;2023-08-21T09:46:15;12.70;;;11.50;;
59271;SDS011;45043;51.068;7.026;2023-08-21T09:49:18;12.57;;;11.27;;
59271;SDS011;45043;51.068;7.026;2023-08-21T09:52:21;14.40;;;12.90;;
59271;SDS011;45043;51.068;7.026;2023-08-21T09:55:22;15.77;;;11.57;;
59271;SDS011;45043;51.068;7.026;2023-08-21T09:58:23;15.23;;;11.40;;
59271;SDS011;45043;51.068;7.026;2023-08-21T10:01:25;15.30;;;11.33;;
59271;SDS011;45043;51.068;7.026;2023-08-21T10:04:30;14.03;;;10.87;;
59271;SDS011;45043;51.068;7.026;2023-08-21T10:07:32;14.17;;;11.70;;
59271;SDS011;45043;51.068;7.026;2023-08-21T10:10:35;12.73;;;9.73;;
59271;SDS011;45043;51.068;7.026;2023-08-21T10:13:39;11.83;;;10.13;;
59271;SDS011;45043;51.068;7.026;2023-08-21T10:16:41;13.00;;;9.77;;
59271;SDS011;45043;51.068;7.026;2023-08-21T10:19:46;12.50;;;10.40;;
59271;SDS011;45043;51.068;7.026;2023-08-21T10:22:53;13.03;;;10.83;;
59271;SDS011;45043;51.068;7.026;2023-08-21T10:25:55;14.33;;;10.93;;
59271;SDS011;45043;51.068;7.026;2023-08-21T10:29:20;13.67;;;11.30;;
59271;SDS011;45043;51.068;7.026;2023-08-21T10:32:22;11.17;;;9.13;;
59271;SDS011;45043;51.068;7.026;2023-08-21T10:35:32;15.73;;;11.10;;
59271;SDS011;45043;51.068;7.026;2023-08-21T10:38:35;11.03;;;8.97;;
59271;SDS011;45043;51.068;7.026;2023-08-21T10:42:04;11.87;;;10.63;;
59271;SDS011;45043;51.068;7.026;2023-08-21T10:45:11;11.80;;;10.37;;
59271;SDS011;45043;51.068;7.026;2023-08-21T10:48:13;12.63;;;10.40;;
59271;SDS011;45043;51.068;7.026;2023-08-21T10:51:14;11.53;;;9.87;;
59271;SDS011;45043;51.068;7.026;2023-08-21T10:54:17;12.97;;;10.40;;
59271;SDS011;45043;51.068;7.026;2023-08-21T10:57:18;13.10;;;10.43;;
59271;SDS011;45043;51.068;7.026;2023-08-21T11:00:20;11.10;;;9.17;;
59271;SDS011;45043;51.068;7.026;2023-08-21T11:03:21;14.30;;;10.13;;
59271;SDS011;45043;51.068;7.026;2023-08-21T11:06:22;12.13;;;10.03;;
59271;SDS011;45043;51.068;7.026;2023-08-21T11:09:23;10.23;;;8.70;;
59271;SDS011;45043;51.068;7.026;2023-08-21T11:12:25;10.63;;;9.23;;
59271;SDS011;45043;51.068;7.026;2023-08-21T11:15:27;14.33;;;10.23;;
59271;SDS011;45043;51.068;7.026;2023-08-21T11:18:29;10.37;;;9.03;;
59271;SDS011;45043;51.068;7.026;2023-08-21T11:21:31;14.17;;;9.50;;
59271;SDS011;45043;51.068;7.026;2023-08-21T11:27:48;13.30;;;10.07;;
59271;SDS011;45043;51.068;7.026;2023-08-21T11:30:49;12.00;;;10.03;;
59271;SDS011;45043;51.068;7.026;2023-08-21T11:33:50;15.27;;;9.80;;
59271;SDS011;45043;51.068;7.026;2023-08-21T11:36:51;14.87;;;10.10;;
59271;SDS011;45043;51.068;7.026;2023-08-21T11:39:54;15.33;;;9.33;;
59271;SDS011;45043;51.068;7.026;2023-08-21T11:43:03;15.07;;;10.77;;
59271;SDS011;45043;51.068;7.026;2023-08-21T11:46:06;12.47;;;9.60;;
59271;SDS011;45043;51.068;7.026;2023-08-21T11:49:08;13.60;;;9.63;;
59271;SDS011;45043;51.068;7.026;2023-08-21T11:52:10;10.67;;;8.00;;
59271;SDS011;45043;51.068;7.026;2023-08-21T11:55:12;12.10;;;10.13;;
59271;SDS011;45043;51.068;7.026;2023-08-21T11:58:12;11.37;;;8.80;;
59271;SDS011;45043;51.068;7.026;2023-08-21T12:01:17;12.13;;;10.20;;
59271;SDS011;45043;51.068;7.026;2023-08-21T12:04:18;11.67;;;9.00;;
59271;SDS011;45043;51.068;7.026;2023-08-21T12:07:19;13.10;;;9.70;;
59271;SDS011;45043;51.068;7.026;2023-08-21T12:10:22;11.13;;;8.97;;
59271;SDS011;45043;51.068;7.026;2023-08-21T12:13:25;10.07;;;8.07;;
59271;SDS011;45043;51.068;7.026;2023-08-21T12:16:26;10.00;;;8.20;;
59271;SDS011;45043;51.068;7.026;2023-08-21T12:19:27;11.00;;;9.57;;
59271;SDS011;45043;51.068;7.026;2023-08-21T12:22:28;7.60;;;6.80;;
59271;SDS011;45043;51.068;7.026;2023-08-21T12:25:29;11.85;;;8.60;;
59271;SDS011;45043;51.068;7.026;2023-08-21T12:28:32;7.82;;;7.03;;
59271;SDS011;45043;51.068;7.026;2023-08-21T12:31:33;10.02;;;7.07;;
59271;SDS011;45043;51.068;7.026;2023-08-21T12:34:34;8.95;;;6.22;;
59271;SDS011;45043;51.068;7.026;2023-08-21T12:37:35;7.10;;;6.30;;
59271;SDS011;45043;51.068;7.026;2023-08-21T12:40:35;8.73;;;6.47;;
59271;SDS011;45043;51.068;7.026;2023-08-21T12:43:37;12.57;;;9.68;;
59271;SDS011;45043;51.068;7.026;2023-08-21T12:46:37;8.02;;;6.80;;
59271;SDS011;45043;51.068;7.026;2023-08-21T12:49:38;6.18;;;5.47;;
59271;SDS011;45043;51.068;7.026;2023-08-21T12:52:40;8.85;;;6.43;;
59271;SDS011;45043;51.068;7.026;2023-08-21T12:55:41;9.75;;;8.07;;
59271;SDS011;45043;51.068;7.026;2023-08-21T12:58:43;8.52;;;6.40;;
59271;SDS011;45043;51.068;7.026;2023-08-21T13:01:44;9.05;;;5.88;;
59271;SDS011;45043;51.068;7.026;2023-08-21T13:04:45;8.43;;;5.68;;
59271;SDS011;45043;51.068;7.026;2023-08-21T13:07:46;7.18;;;5.70;;
59271;SDS011;45043;51.068;7.026;2023-08-21T13:10:47;11.18;;;5.22;;
59271;SDS011;45043;51.068;7.026;2023-08-21T13:13:48;6.00;;;4.90;;
59271;SDS011;45043;51.068;7.026;2023-08-21T13:16:49;7.35;;;4.55;;
59271;SDS011;45043;51.068;7.026;2023-08-21T13:19:50;6.82;;;5.43;;
59271;SDS011;45043;51.068;7.026;2023-08-21T13:22:54;6.55;;;5.13;;
59271;SDS011;45043;51.068;7.026;2023-08-21T13:25:55;9.82;;;5.75;;
59271;SDS011;45043;51.068;7.026;2023-08-21T13:28:57;6.75;;;4.72;;
59271;SDS011;45043;51.068;7.026;2023-08-21T13:31:58;6.20;;;4.03;;
59271;SDS011;45043;51.068;7.026;2023-08-21T13:34:59;5.93;;;4.53;;
59271;SDS011;45043;51.068;7.026;2023-08-21T13:38:01;7.10;;;4.88;;
59271;SDS011;45043;51.068;7.026;2023-08-21T13:41:02;8.45;;;5.25;;
59271;SDS011;45043;51.068;7.026;2023-08-21T13:44:03;7.63;;;4.35;;
59271;SDS011;45043;51.068;7.026;2023-08-21T13:47:04;8.13;;;6.05;;
59271;SDS011;45043;51.068;7.026;2023-08-21T13:50:06;5.07;;;3.90;;
59271;SDS011;45043;51.068;7.026;2023-08-21T13:53:08;5.70;;;4.70;;
59271;SDS011;45043;51.068;7.026;2023-08-21T13:56:09;5.57;;;3.80;;
59271;SDS011;45043;51.068;7.026;2023-08-21T13:59:10;10.75;;;7.97;;
59271;SDS011;45043;51.068;7.026;2023-08-21T14:02:11;8.38;;;6.75;;
59271;SDS011;45043;51.068;7.026;2023-08-21T14:05:12;8.10;;;5.95;;
59271;SDS011;45043;51.068;7.026;2023-08-21T14:08:13;6.68;;;4.32;;
59271;SDS011;45043;51.068;7.026;2023-08-21T14:11:14;5.65;;;4.97;;
59271;SDS011;45043;51.068;7.026;2023-08-21T14:14:15;7.53;;;3.88;;
59271;SDS011;45043;51.068;7.026;2023-08-21T14:17:15;7.38;;;4.63;;
59271;SDS011;45043;51.068;7.026;2023-08-21T14:20:16;6.90;;;4.25;;
59271;SDS011;45043;51.068;7.026;2023-08-21T14:23:17;5.60;;;4.20;;
59271;SDS011;45043;51.068;7.026;2023-08-21T14:26:18;6.68;;;3.92;;
59271;SDS011;45043;51.068;7.026;2023-08-21T14:29:19;7.60;;;3.60;;
59271;SDS011;45043;51.068;7.026;2023-08-21T14:32:20;4.97;;;3.50;;
59271;SDS011;45043;51.068;7.026;2023-08-21T14:35:21;7.57;;;3.40;;
59271;SDS011;45043;51.068;7.026;2023-08-21T14:38:22;7.18;;;3.55;;
59271;SDS011;45043;51.068;7.026;2023-08-21T14:41:23;5.50;;;3.20;;
59271;SDS011;45043;51.068;7.026;2023-08-21T14:44:24;8.20;;;4.22;;
59271;SDS011;45043;51.068;7.026;2023-08-21T14:47:25;10.70;;;7.63;;
59271;SDS011;45043;51.068;7.026;2023-08-21T14:50:26;7.60;;;6.75;;
59271;SDS011;45043;51.068;7.026;2023-08-21T14:53:28;4.18;;;3.78;;
59271;SDS011;45043;51.068;7.026;2023-08-21T14:56:29;4.70;;;3.28;;
59271;SDS011;45043;51.068;7.026;2023-08-21T14:59:30;6.15;;;3.55;;
59271;SDS011;45043;51.068;7.026;2023-08-21T15:02:31;7.05;;;3.38;;
59271;SDS011;45043;51.068;7.026;2023-08-21T15:05:32;4.45;;;3.50;;
59271;SDS011;45043;51.068;7.026;2023-08-21T15:08:33;5.25;;;4.60;;
59271;SDS011;45043;51.068;7.026;2023-08-21T15:11:35;6.63;;;3.47;;
59271;SDS011;45043;51.068;7.026;2023-08-21T15:14:36;5.88;;;3.70;;
59271;SDS011;45043;51.068;7.026;2023-08-21T15:17:37;6.50;;;3.67;;
59271;SDS011;45043;51.068;7.026;2023-08-21T15:20:38;6.25;;;3.63;;
59271;SDS011;45043;51.068;7.026;2023-08-21T15:23:39;6.70;;;3.70;;
59271;SDS011;45043;51.068;7.026;2023-08-21T15:26:40;4.63;;;3.20;;
59271;SDS011;45043;51.068;7.026;2023-08-21T15:29:40;4.22;;;3.15;;
59271;SDS011;45043;51.068;7.026;2023-08-21T15:32:41;6.75;;;3.85;;
59271;SDS011;45043;51.068;7.026;2023-08-21T15:35:43;5.40;;;3.25;;
59271;SDS011;45043;51.068;7.026;2023-08-21T15:38:44;11.50;;;10.32;;
59271;SDS011;45043;51.068;7.026;2023-08-21T15:41:44;14.70;;;13.35;;
59271;SDS011;45043;51.068;7.026;2023-08-21T15:44:45;7.32;;;3.53;;
59271;SDS011;45043;51.068;7.026;2023-08-21T15:47:46;5.38;;;3.42;;
59271;SDS011;45043;51.068;7.026;2023-08-21T15:50:48;7.85;;;3.35;;
59271;SDS011;45043;51.068;7.026;2023-08-21T15:53:50;5.80;;;5.20;;
59271;SDS011;45043;51.068;7.026;2023-08-21T15:56:50;7.25;;;5.45;;
59271;SDS011;45043;51.068;7.026;2023-08-21T15:59:51;7.00;;;5.68;;
59271;SDS011;45043;51.068;7.026;2023-08-21T16:02:52;7.32;;;5.30;;
59271;SDS011;45043;51.068;7.026;2023-08-21T16:05:53;6.10;;;5.50;;
59271;SDS011;45043;51.068;7.026;2023-08-21T16:08:54;9.65;;;5.25;;
59271;SDS011;45043;51.068;7.026;2023-08-21T16:11:55;6.72;;;4.88;;
59271;SDS011;45043;51.068;7.026;2023-08-21T16:14:56;5.85;;;4.75;;
59271;SDS011;45043;51.068;7.026;2023-08-21T16:17:57;4.75;;;4.15;;
59271;SDS011;45043;51.068;7.026;2023-08-21T16:20:58;5.03;;;4.38;;
59271;SDS011;45043;51.068;7.026;2023-08-21T16:23:59;6.90;;;4.35;;
59271;SDS011;45043;51.068;7.026;2023-08-21T16:27:00;6.57;;;3.45;;
59271;SDS011;45043;51.068;7.026;2023-08-21T16:30:02;4.90;;;4.35;;
59271;SDS011;45043;51.068;7.026;2023-08-21T16:33:04;5.45;;;4.32;;
59271;SDS011;45043;51.068;7.026;2023-08-21T16:36:04;5.80;;;3.85;;
59271;SDS011;45043;51.068;7.026;2023-08-21T16:39:08;5.18;;;4.68;;
59271;SDS011;45043;51.068;7.026;2023-08-21T16:42:09;4.80;;;3.75;;
59271;SDS011;45043;51.068;7.026;2023-08-21T16:45:11;8.75;;;4.53;;
59271;SDS011;45043;51.068;7.026;2023-08-21T16:48:13;7.43;;;4.38;;
59271;SDS011;45043;51.068;7.026;2023-08-21T16:51:14;7.25;;;4.07;;
59271;SDS011;45043;51.068;7.026;2023-08-21T16:54:15;5.20;;;3.90;;
59271;SDS011;45043;51.068;7.026;2023-08-21T16:57:16;5.80;;;3.75;;
59271;SDS011;45043;51.068;7.026;2023-08-21T17:00:17;4.47;;;3.92;;
59271;SDS011;45043;51.068;7.026;2023-08-21T17:03:19;4.85;;;4.03;;
59271;SDS011;45043;51.068;7.026;2023-08-21T17:06:20;6.63;;;4.15;;
59271;SDS011;45043;51.068;7.026;2023-08-21T17:09:21;5.63;;;3.53;;
59271;SDS011;45043;51.068;7.026;2023-08-21T17:12:23;6.93;;;5.88;;
59271;SDS011;45043;51.068;7.026;2023-08-21T17:15:24;8.23;;;6.82;;
59271;SDS011;45043;51.068;7.026;2023-08-21T17:18:25;10.80;;;9.65;;
59271;SDS011;45043;51.068;7.026;2023-08-21T17:21:26;7.78;;;5.60;;
59271;SDS011;45043;51.068;7.026;2023-08-21T17:24:27;5.60;;;4.50;;
59271;SDS011;45043;51.068;7.026;2023-08-21T17:27:27;5.07;;;3.80;;
59271;SDS011;45043;51.068;7.026;2023-08-21T17:30:28;4.78;;;4.30;;
59271;SDS011;45043;51.068;7.026;2023-08-21T17:33:31;5.70;;;3.60;;
59271;SDS011;45043;51.068;7.026;2023-08-21T17:36:32;5.72;;;3.90;;
59271;SDS011;45043;51.068;7.026;2023-08-21T17:39:33;4.68;;;3.60;;
59271;SDS011;45043;51.068;7.026;2023-08-21T17:42:35;6.05;;;3.63;;
59271;SDS011;45043;51.068;7.026;2023-08-21T17:45:35;5.85;;;3.30;;
59271;SDS011;45043;51.068;7.026;2023-08-21T17:48:36;4.95;;;3.17;;
59271;SDS011;45043;51.068;7.026;2023-08-21T17:51:37;7.00;;;3.22;;
59271;SDS011;45043;51.068;7.026;2023-08-21T17:54:38;6.15;;;3.03;;
59271;SDS011;45043;51.068;7.026;2023-08-21T17:57:40;4.32;;;3.05;;
59271;SDS011;45043;51.068;7.026;2023-08-21T18:00:41;4.82;;;2.60;;
59271;SDS011;45043;51.068;7.026;2023-08-21T18:03:42;6.05;;;2.92;;
59271;SDS011;45043;51.068;7.026;2023-08-21T18:06:42;5.03;;;2.97;;
59271;SDS011;45043;51.068;7.026;2023-08-21T18:09:43;9.13;;;3.10;;
59271;SDS011;45043;51.068;7.026;2023-08-21T18:12:43;5.93;;;2.95;;
59271;SDS011;45043;51.068;7.026;2023-08-21T18:15:48;4.72;;;2.92;;